createdAt,value
2019-03-26T00:01:49.017Z,1.00
2019-03-26T00:04:19.454Z,1.00
2019-03-26T00:06:49.975Z,1.80
2019-03-26T00:09:20.427Z,1.00
2019-03-26T00:11:50.973Z,0.20
2019-03-26T00:14:22.291Z,0.60
2019-03-26T00:16:53.084Z,3.00
2019-03-26T00:19:23.518Z,1.00
2019-03-26T00:21:53.815Z,1.00
2019-03-26T00:24:24.606Z,1.00
2019-03-26T00:26:54.815Z,1.00
2019-03-26T00:29:25.673Z,3.00
2019-03-26T00:31:56.022Z,1.80
2019-03-26T00:34:26.256Z,4.00
2019-03-26T00:36:56.481Z,1.80
2019-03-26T00:39:27.432Z,2.20
2019-03-26T00:41:58.000Z,1.40
2019-03-26T00:44:28.767Z,3.00
2019-03-26T00:46:59.086Z,3.40
2019-03-26T00:49:29.507Z,4.00
2019-03-26T00:52:00.817Z,3.80
2019-03-26T00:54:31.054Z,3.00
2019-03-26T00:57:01.301Z,3.20
2019-03-26T00:59:31.527Z,3.60
2019-03-26T01:02:01.880Z,6.80
2019-03-26T01:04:33.373Z,5.40
2019-03-26T01:07:04.286Z,3.80
2019-03-26T01:09:34.755Z,7.20
2019-03-26T01:12:05.062Z,5.20
2019-03-26T01:14:35.964Z,6.60
2019-03-26T01:17:06.248Z,6.00
2019-03-26T01:19:36.551Z,3.20
2019-03-26T01:22:06.893Z,7.80
2019-03-26T01:24:37.045Z,7.00
2019-03-26T01:27:07.347Z,6.00
2019-03-26T01:29:37.558Z,5.60
2019-03-26T01:32:08.099Z,6.00
2019-03-26T01:34:45.884Z,4.00
2019-03-26T01:37:10.922Z,6.60
2019-03-26T01:39:41.476Z,3.00
2019-03-26T01:42:12.168Z,3.60
2019-03-26T01:44:42.384Z,6.20
2019-03-26T01:47:12.783Z,4.00
2019-03-26T01:49:43.214Z,4.40
2019-03-26T01:52:13.444Z,4.00
2019-03-26T01:54:43.910Z,7.80
2019-03-26T01:57:14.247Z,5.60
2019-03-26T01:59:45.078Z,4.00
2019-03-26T02:02:15.321Z,3.80
2019-03-26T02:04:58.988Z,3.80
2019-03-26T02:07:18.620Z,4.00
2019-03-26T02:09:49.470Z,2.20
2019-03-26T02:12:19.898Z,3.20
2019-03-26T02:14:50.242Z,4.80
2019-03-26T02:17:20.664Z,4.40
2019-03-26T02:19:51.211Z,3.00
2019-03-26T02:22:21.621Z,4.80
2019-03-26T02:24:51.918Z,4.00
2019-03-26T02:27:22.561Z,3.80
2019-03-26T02:29:52.824Z,4.80
2019-03-26T02:32:23.171Z,4.00
2019-03-26T02:34:53.467Z,3.80
2019-03-26T02:37:23.737Z,4.40
2019-03-26T02:39:54.033Z,4.40
2019-03-26T02:42:24.364Z,3.40
2019-03-26T02:44:54.984Z,3.00
2019-03-26T02:47:25.665Z,3.60
2019-03-26T02:49:56.029Z,6.00
2019-03-26T02:52:26.459Z,1.80
2019-03-26T02:54:57.138Z,3.20
2019-03-26T02:57:27.523Z,4.40
2019-03-26T02:59:58.019Z,2.20
2019-03-26T03:02:28.270Z,4.00
2019-03-26T03:04:58.493Z,3.00
2019-03-26T03:07:29.158Z,3.20
2019-03-26T03:09:59.586Z,3.20
2019-03-26T03:12:38.815Z,1.00
2019-03-26T03:15:09.603Z,3.00
2019-03-26T03:17:39.788Z,2.60
2019-03-26T03:20:10.048Z,3.00
2019-03-26T03:22:40.807Z,2.20
2019-03-26T03:25:10.953Z,0.60
2019-03-26T03:27:41.635Z,3.80
2019-03-26T03:30:11.965Z,4.00
2019-03-26T03:32:42.222Z,2.20
2019-03-26T03:35:12.550Z,3.00
2019-03-26T03:37:43.028Z,3.80
2019-03-26T03:40:13.395Z,6.00
2019-03-26T03:42:43.709Z,1.80
2019-03-26T03:45:14.049Z,4.00
2019-03-26T03:47:44.371Z,1.80
2019-03-26T03:50:14.737Z,3.00
2019-03-26T03:52:45.309Z,3.00
2019-03-26T03:55:15.663Z,1.40
2019-03-26T03:57:45.882Z,4.00
2019-03-26T04:00:35.945Z,4.00
2019-03-26T04:03:08.173Z,3.00
2019-03-26T04:05:38.738Z,3.40
2019-03-26T04:08:09.277Z,3.00
2019-03-26T04:10:39.487Z,3.00
2019-03-26T04:13:10.462Z,1.00
2019-03-26T04:15:40.922Z,5.20
2019-03-26T04:18:14.706Z,4.00
2019-03-26T04:20:45.549Z,3.80
2019-03-26T04:23:15.856Z,6.00
2019-03-26T04:25:46.227Z,5.60
2019-03-26T04:28:17.121Z,5.20
2019-03-26T04:30:47.364Z,2.60
2019-03-26T04:33:17.800Z,3.00
2019-03-26T04:35:48.047Z,3.00
2019-03-26T04:38:18.403Z,4.40
2019-03-26T04:40:48.840Z,4.40
2019-03-26T04:43:19.825Z,3.20
2019-03-26T04:45:50.357Z,6.00
2019-03-26T04:48:20.759Z,6.00
2019-03-26T04:50:50.919Z,4.20
2019-03-26T04:53:21.275Z,0.60
2019-03-26T04:55:51.542Z,6.40
2019-03-26T04:58:22.134Z,5.20
2019-03-26T05:00:52.477Z,6.80
2019-03-26T05:03:23.567Z,4.00
2019-03-26T05:05:53.966Z,1.00
2019-03-26T05:08:24.450Z,5.20
2019-03-26T05:11:04.664Z,7.00
2019-03-26T05:13:42.079Z,5.20
2019-03-26T05:16:12.403Z,7.80
2019-03-26T05:18:42.934Z,3.00
2019-03-26T05:21:13.445Z,6.00
2019-03-26T05:23:43.706Z,8.00
2019-03-26T05:26:14.082Z,6.40
2019-03-26T05:28:44.321Z,4.00
2019-03-26T05:31:15.489Z,4.00
2019-03-26T05:33:45.754Z,4.00
2019-03-26T05:36:16.128Z,6.80
2019-03-26T05:38:47.583Z,7.80
2019-03-26T05:41:18.041Z,6.20
2019-03-26T05:43:48.857Z,7.80
2019-03-26T05:46:19.076Z,5.60
2019-03-26T05:48:49.475Z,4.60
2019-03-26T05:51:20.753Z,3.20
2019-03-26T05:53:51.244Z,8.20
2019-03-26T05:56:21.629Z,4.00
2019-03-26T05:58:52.272Z,4.40
2019-03-26T06:01:23.045Z,10.00
2019-03-26T06:03:53.609Z,4.00
2019-03-26T06:06:24.223Z,3.60
2019-03-26T06:08:55.074Z,4.00
2019-03-26T06:11:25.479Z,4.00
2019-03-26T06:13:56.189Z,5.60
2019-03-26T06:16:37.798Z,5.20
2019-03-26T06:19:01.687Z,5.60
2019-03-26T06:21:32.126Z,4.80
2019-03-26T06:24:03.005Z,1.80
2019-03-26T06:26:33.340Z,3.60
2019-03-26T06:29:03.805Z,3.80
2019-03-26T06:31:34.273Z,3.80
2019-03-26T06:34:04.598Z,2.20
2019-03-26T06:36:35.439Z,4.00
2019-03-26T06:39:07.944Z,1.00
2019-03-26T06:41:38.358Z,1.40
2019-03-26T06:44:08.784Z,4.00
2019-03-26T06:46:39.283Z,4.00
2019-03-26T06:49:09.739Z,4.00
2019-03-26T06:51:40.188Z,0.60
2019-03-26T06:54:10.914Z,1.00
2019-03-26T06:56:41.439Z,2.60
2019-03-26T06:59:11.687Z,5.60
2019-03-26T07:01:42.374Z,3.80
2019-03-26T07:04:13.211Z,3.20
2019-03-26T07:06:43.373Z,3.20
2019-03-26T07:09:14.233Z,1.00
2019-03-26T07:11:45.584Z,3.00
2019-03-26T07:14:16.211Z,3.20
2019-03-26T07:16:46.882Z,2.60
2019-03-26T07:19:17.270Z,9.00
2019-03-26T07:21:49.925Z,3.20
2019-03-26T07:24:21.112Z,1.80
2019-03-26T07:26:51.453Z,1.40
2019-03-26T07:29:22.081Z,1.00
2019-03-26T07:31:52.382Z,1.80
2019-03-26T07:34:22.826Z,3.60
2019-03-26T07:36:53.401Z,1.00
2019-03-26T07:39:26.350Z,2.60
2019-03-26T07:41:57.437Z,2.60
2019-03-26T07:44:29.763Z,1.00
2019-03-26T07:47:00.112Z,3.00
2019-03-26T07:49:30.498Z,1.00
2019-03-26T07:52:01.039Z,3.60
2019-03-26T07:54:32.719Z,1.00
2019-03-26T07:57:03.427Z,3.00
2019-03-26T07:59:34.368Z,4.00
2019-03-26T08:02:04.589Z,1.00
2019-03-26T08:04:35.019Z,4.00
2019-03-26T08:07:05.718Z,2.60
2019-03-26T08:09:36.701Z,3.00
2019-03-26T08:12:07.683Z,1.00
2019-03-26T08:14:38.622Z,3.40
2019-03-26T08:17:09.221Z,3.20
2019-03-26T08:19:39.671Z,4.00
2019-03-26T08:22:11.320Z,3.20
2019-03-26T08:24:42.319Z,4.00
2019-03-26T08:27:12.617Z,4.00
2019-03-26T08:29:43.038Z,1.00
2019-03-26T08:32:13.371Z,2.20
2019-03-26T08:34:46.590Z,1.80
2019-03-26T08:37:16.016Z,3.00
2019-03-26T08:39:48.728Z,1.00
2019-03-26T08:42:21.746Z,0.60
2019-03-26T08:44:54.094Z,3.00
2019-03-26T08:47:24.665Z,1.00
2019-03-26T08:49:55.097Z,2.60
2019-03-26T08:52:26.475Z,3.00
2019-03-26T08:54:57.726Z,3.00
2019-03-26T08:57:28.492Z,2.60
2019-03-26T08:59:59.073Z,1.80
2019-03-26T09:02:29.512Z,0.60
2019-03-26T09:04:59.844Z,1.00
2019-03-26T09:07:30.410Z,2.20
2019-03-26T09:10:01.194Z,3.40
2019-03-26T09:12:31.465Z,3.00
2019-03-26T09:15:02.431Z,3.00
2019-03-26T09:17:32.667Z,4.00
2019-03-26T09:20:05.078Z,6.80
2019-03-26T09:22:36.953Z,2.20
2019-03-26T09:25:07.432Z,6.60
2019-03-26T09:27:38.779Z,11.20
2019-03-26T09:30:10.161Z,6.40
2019-03-26T09:32:40.780Z,6.20
2019-03-26T09:35:11.596Z,9.20
2019-03-26T09:37:41.745Z,5.60
2019-03-26T09:40:12.093Z,4.40
2019-03-26T09:42:43.054Z,7.20
2019-03-26T09:45:13.883Z,1.40
2019-03-26T09:47:44.312Z,11.60
2019-03-26T09:50:15.044Z,7.00
2019-03-26T09:52:45.235Z,8.60
2019-03-26T09:55:16.146Z,8.60
2019-03-26T09:57:46.812Z,7.00
2019-03-26T10:00:17.201Z,3.00
2019-03-26T10:02:48.094Z,3.40
2019-03-26T10:05:18.454Z,7.40
2019-03-26T10:07:49.562Z,6.60
2019-03-26T10:10:20.733Z,9.00
2019-03-26T10:12:51.314Z,1.00
2019-03-26T10:15:21.672Z,4.80
2019-03-26T10:17:58.157Z,6.20
2019-03-26T10:20:28.500Z,6.00
2019-03-26T10:22:59.163Z,6.00
2019-03-26T10:25:29.550Z,5.60
2019-03-26T10:27:59.833Z,6.00
2019-03-26T10:30:42.037Z,4.00
2019-03-26T10:33:16.783Z,8.20
2019-03-26T10:35:50.022Z,7.40
2019-03-26T10:38:20.799Z,9.80
2019-03-26T10:40:52.459Z,7.80
2019-03-26T10:43:23.144Z,9.20
2019-03-26T10:45:54.068Z,9.60
2019-03-26T10:48:25.296Z,9.00
2019-03-26T10:50:56.754Z,12.00
2019-03-26T10:53:27.931Z,10.20
2019-03-26T10:55:58.686Z,11.00
2019-03-26T10:58:29.349Z,10.40
2019-03-26T11:01:00.164Z,12.60
2019-03-26T11:03:30.732Z,12.60
2019-03-26T11:06:09.052Z,12.80
2019-03-26T11:08:40.227Z,13.20
2019-03-26T11:11:10.697Z,14.60
2019-03-26T11:13:41.378Z,12.80
2019-03-26T11:16:11.800Z,11.80
2019-03-26T11:18:42.706Z,18.00
2019-03-26T11:21:14.634Z,14.20
2019-03-26T11:23:45.140Z,16.60
2019-03-26T11:26:15.641Z,15.00
2019-03-26T11:28:47.162Z,12.80
2019-03-26T11:31:19.799Z,14.60
2019-03-26T11:33:53.190Z,11.80
2019-03-26T11:36:24.187Z,16.00
2019-03-26T11:38:55.143Z,16.60
2019-03-26T11:41:25.753Z,13.40
2019-03-26T11:43:56.614Z,15.20
2019-03-26T11:46:27.131Z,21.20
2019-03-26T11:48:59.031Z,18.60
2019-03-26T11:51:29.715Z,14.60
2019-03-26T11:54:00.422Z,15.00
2019-03-26T11:56:31.507Z,16.40
2019-03-26T11:59:01.983Z,12.00
2019-03-26T12:01:32.570Z,12.20
2019-03-26T12:04:03.417Z,15.00
2019-03-26T12:06:33.817Z,16.40
2019-03-26T12:09:04.070Z,15.60
2019-03-26T12:11:34.482Z,12.80
2019-03-26T12:14:05.192Z,13.40
2019-03-26T12:16:35.477Z,12.60
2019-03-26T12:19:06.209Z,12.20
2019-03-26T12:21:40.179Z,12.40
2019-03-26T12:24:11.303Z,9.00
2019-03-26T12:26:42.138Z,9.20
2019-03-26T12:29:13.131Z,7.80
2019-03-26T12:31:43.239Z,6.20
2019-03-26T12:34:15.318Z,4.00
2019-03-26T12:36:46.650Z,7.00
2019-03-26T12:39:17.292Z,1.00
2019-03-26T12:41:48.184Z,6.60
2019-03-26T12:44:21.417Z,7.80
2019-03-26T12:46:52.168Z,7.80
2019-03-26T12:49:22.904Z,11.20
2019-03-26T12:51:53.385Z,9.20
2019-03-26T12:54:24.396Z,13.00
2019-03-26T12:56:54.858Z,7.80
2019-03-26T12:59:27.664Z,14.60
2019-03-26T13:01:58.337Z,15.00
2019-03-26T13:04:28.833Z,12.40
2019-03-26T13:06:59.224Z,13.00
2019-03-26T13:09:29.596Z,12.40
2019-03-26T13:12:01.210Z,12.20
2019-03-26T13:14:31.978Z,7.40
2019-03-26T13:17:02.584Z,10.80
2019-03-26T13:19:33.161Z,9.60
2019-03-26T13:22:03.572Z,12.00
2019-03-26T13:24:34.587Z,10.40
2019-03-26T13:27:08.145Z,9.40
2019-03-26T13:29:38.215Z,6.40
2019-03-26T13:32:08.784Z,9.00
2019-03-26T13:34:42.503Z,9.40
2019-03-26T13:37:13.410Z,9.00
2019-03-26T13:39:43.767Z,9.80
2019-03-26T13:42:14.536Z,8.40
2019-03-26T13:44:46.115Z,9.00
2019-03-26T13:47:20.769Z,9.80
2019-03-26T13:49:50.948Z,7.00
2019-03-26T13:52:21.614Z,8.60
2019-03-26T13:54:51.795Z,4.40
2019-03-26T13:59:52.201Z,10.20
2019-03-26T14:02:22.844Z,6.40
2019-03-26T14:07:35.305Z,13.40
2019-03-26T14:10:06.121Z,7.00
2019-03-26T14:12:36.981Z,4.00
2019-03-26T14:15:07.632Z,7.40
2019-03-26T14:17:37.781Z,7.00
2019-03-26T14:20:08.089Z,6.40
2019-03-26T14:22:38.275Z,6.00
2019-03-26T14:25:08.492Z,0.80
2019-03-26T14:27:38.768Z,6.60
2019-03-26T14:30:09.402Z,6.00
2019-03-26T14:32:39.960Z,7.40
2019-03-26T14:35:10.156Z,4.00
2019-03-26T14:37:51.298Z,1.80
2019-03-26T14:40:12.900Z,2.60
2019-03-26T14:42:44.094Z,5.60
2019-03-26T14:45:18.106Z,3.60
2019-03-26T14:47:51.181Z,5.20
2019-03-26T14:50:21.823Z,6.00
2019-03-26T14:52:52.201Z,11.20
2019-03-26T14:55:22.661Z,6.20
2019-03-26T14:57:52.747Z,7.00
2019-03-26T15:00:23.374Z,9.60
2019-03-26T15:02:53.437Z,6.40
2019-03-26T15:05:25.396Z,6.00
2019-03-26T15:07:55.886Z,6.00
2019-03-26T15:10:27.497Z,8.20
2019-03-26T15:13:00.344Z,3.00
2019-03-26T15:15:31.101Z,6.00
2019-03-26T15:18:02.387Z,8.20
2019-03-26T15:20:32.932Z,4.00
2019-03-26T15:23:03.491Z,5.20
2019-03-26T15:25:33.902Z,9.60
2019-03-26T15:28:04.441Z,3.00
2019-03-26T15:30:36.466Z,6.00
2019-03-26T15:33:28.169Z,6.00
2019-03-26T15:36:02.470Z,8.60
2019-03-26T15:38:34.245Z,6.40
2019-03-26T15:41:06.951Z,6.60
2019-03-26T15:43:39.464Z,6.20
2019-03-26T15:46:17.764Z,12.60
2019-03-26T15:48:51.197Z,9.80
2019-03-26T15:51:23.541Z,6.00
2019-03-26T15:53:54.825Z,6.80
2019-03-26T15:56:25.173Z,6.60
2019-03-26T15:58:56.759Z,8.60
2019-03-26T16:01:35.142Z,3.00
2019-03-26T16:04:05.458Z,6.20
2019-03-26T16:06:37.392Z,4.40
2019-03-26T16:09:10.559Z,1.00
2019-03-26T16:11:41.724Z,3.00
2019-03-26T16:14:11.858Z,6.00
2019-03-26T16:16:41.999Z,7.00
2019-03-26T16:19:14.397Z,6.00
2019-03-26T16:21:45.319Z,6.00
2019-03-26T16:24:17.331Z,12.20
2019-03-26T16:26:49.224Z,6.20
2019-03-26T16:29:19.638Z,9.80
2019-03-26T16:31:49.905Z,8.80
2019-03-26T16:34:20.292Z,9.60
2019-03-26T16:36:59.458Z,9.40
2019-03-26T16:39:34.955Z,11.60
2019-03-26T16:42:09.134Z,9.20
2019-03-26T16:44:42.816Z,8.60
2019-03-26T16:47:13.698Z,6.60
2019-03-26T16:49:46.408Z,7.40
2019-03-26T16:52:18.533Z,9.80
2019-03-26T16:54:53.752Z,12.40
2019-03-26T16:57:30.011Z,10.40
2019-03-26T17:00:03.755Z,7.40
2019-03-26T17:02:34.528Z,9.00
2019-03-26T17:05:05.358Z,9.00
2019-03-26T17:07:39.781Z,7.40
2019-03-26T17:10:14.884Z,9.60
2019-03-26T17:12:45.708Z,9.60
2019-03-26T17:15:17.749Z,10.40
2019-03-26T17:17:48.279Z,12.40
2019-03-26T17:20:23.869Z,14.00
2019-03-26T17:22:57.462Z,4.00
2019-03-26T17:25:33.858Z,7.00
2019-03-26T17:28:06.377Z,9.20
2019-03-26T17:30:37.742Z,9.60
2019-03-26T17:33:10.716Z,6.00
2019-03-26T17:35:41.923Z,7.00
2019-03-26T17:38:15.193Z,9.60
2019-03-26T17:40:46.628Z,10.60
2019-03-26T17:43:19.138Z,7.00
2019-03-26T17:45:49.235Z,7.40
2019-03-26T17:48:19.769Z,9.00
2019-03-26T17:50:50.190Z,7.80
2019-03-26T17:53:21.124Z,9.40
2019-03-26T17:55:52.741Z,6.80
2019-03-26T17:58:23.648Z,9.00
2019-03-26T18:00:55.057Z,7.80
2019-03-26T18:03:28.266Z,6.00
2019-03-26T18:06:04.158Z,7.40
2019-03-26T18:08:38.399Z,7.80
2019-03-26T18:11:32.644Z,8.60
2019-03-26T18:14:03.099Z,8.20
2019-03-26T18:16:34.100Z,6.00
2019-03-26T18:19:09.111Z,9.40
2019-03-26T18:21:51.409Z,9.80
2019-03-26T18:24:16.422Z,6.60
2019-03-26T18:26:49.874Z,7.80
2019-03-26T18:29:20.683Z,4.00
2019-03-26T18:31:51.453Z,6.20
2019-03-26T18:34:22.638Z,7.40
2019-03-26T18:36:55.289Z,7.00
2019-03-26T18:39:25.708Z,2.60
2019-03-26T18:41:56.176Z,9.00
2019-03-26T18:44:28.004Z,8.60
2019-03-26T18:46:58.495Z,8.20
2019-03-26T18:49:30.325Z,9.00
2019-03-26T18:52:03.161Z,9.80
2019-03-26T18:54:33.943Z,9.20
2019-03-26T18:57:04.358Z,7.00
2019-03-26T18:59:35.468Z,9.40
2019-03-26T19:02:10.800Z,10.00
2019-03-26T19:04:47.164Z,10.40
2019-03-26T19:07:17.464Z,12.00
2019-03-26T19:09:49.326Z,6.60
2019-03-26T19:12:22.547Z,3.00
2019-03-26T19:14:53.340Z,10.00
2019-03-26T19:17:27.356Z,10.00
2019-03-26T19:20:02.533Z,8.60
2019-03-26T19:22:33.140Z,12.80
2019-03-26T19:25:05.084Z,7.80
2019-03-26T19:27:36.107Z,7.00
2019-03-26T19:30:09.085Z,6.80
2019-03-26T19:32:41.752Z,10.00
2019-03-26T19:35:12.441Z,9.60
2019-03-26T19:37:45.775Z,9.60
2019-03-26T19:40:16.535Z,9.20
2019-03-26T19:42:46.808Z,6.80
2019-03-26T19:45:18.604Z,10.40
2019-03-26T19:47:49.655Z,12.00
2019-03-26T19:50:22.692Z,6.20
2019-03-26T19:52:53.363Z,9.40
2019-03-26T19:55:25.217Z,10.00
2019-03-26T19:57:58.204Z,9.00
2019-03-26T20:00:31.234Z,9.40
2019-03-26T20:03:01.992Z,6.20
2019-03-26T20:05:42.036Z,12.80
2019-03-26T20:08:13.292Z,7.00
2019-03-26T20:10:47.129Z,8.60
2019-03-26T20:13:24.577Z,7.80
2019-03-26T20:15:52.032Z,11.60
2019-03-26T20:18:23.323Z,11.60
2019-03-26T20:20:55.672Z,8.20
2019-03-26T20:23:26.210Z,16.00
2019-03-26T20:25:56.879Z,12.20
2019-03-26T20:28:28.055Z,12.20
2019-03-26T20:31:01.460Z,11.20
2019-03-26T20:33:35.118Z,15.60
2019-03-26T20:36:06.073Z,12.00
2019-03-26T20:38:40.525Z,15.40
2019-03-26T20:41:13.652Z,14.20
2019-03-26T20:43:46.314Z,11.20
2019-03-26T20:46:19.885Z,11.20
2019-03-26T20:48:51.105Z,14.60
2019-03-26T20:51:22.227Z,11.60
2019-03-26T20:53:54.296Z,13.80
2019-03-26T20:56:26.752Z,12.00
2019-03-26T20:58:57.913Z,12.40
2019-03-26T21:01:28.729Z,12.80
2019-03-26T21:04:00.357Z,11.00
2019-03-26T21:06:33.843Z,10.80
2019-03-26T21:09:06.458Z,11.20
2019-03-26T21:11:44.022Z,9.80
2019-03-26T21:14:14.823Z,9.60
2019-03-26T21:16:45.620Z,11.20
2019-03-26T21:19:16.090Z,9.00
2019-03-26T21:21:47.381Z,7.80
2019-03-26T21:24:20.942Z,9.20
2019-03-26T21:26:51.478Z,9.40
2019-03-26T21:29:22.329Z,9.80
2019-03-26T21:31:53.115Z,10.00
2019-03-26T21:34:30.323Z,6.80
2019-03-26T21:36:56.645Z,9.20
2019-03-26T21:39:27.522Z,6.80
2019-03-26T21:41:58.545Z,6.60
2019-03-26T21:44:29.599Z,6.00
2019-03-26T21:47:01.109Z,7.40
2019-03-26T21:49:31.544Z,8.20
2019-03-26T21:52:02.846Z,8.80
2019-03-26T21:54:37.115Z,5.60
2019-03-26T21:57:07.357Z,6.00
2019-03-26T21:59:40.147Z,9.40
2019-03-26T22:02:11.668Z,9.60
2019-03-26T22:04:46.047Z,9.40
2019-03-26T22:07:25.701Z,7.00
2019-03-26T22:09:56.072Z,7.00
2019-03-26T22:12:27.586Z,10.00
2019-03-26T22:14:59.562Z,7.00
2019-03-26T22:17:30.151Z,10.00
2019-03-26T22:20:01.223Z,10.00
2019-03-26T22:22:31.708Z,10.00
2019-03-26T22:25:02.643Z,7.00
2019-03-26T22:27:37.274Z,12.00
2019-03-26T22:30:10.332Z,10.20
2019-03-26T22:32:41.273Z,9.80
2019-03-26T22:35:12.434Z,9.60
2019-03-26T22:37:46.216Z,10.00
2019-03-26T22:40:20.145Z,10.80
2019-03-26T22:42:51.135Z,10.00
2019-03-26T22:45:21.750Z,9.20
2019-03-26T22:47:52.683Z,14.60
2019-03-26T22:50:23.593Z,12.40
2019-03-26T22:52:54.478Z,15.60
2019-03-26T22:55:25.550Z,13.60
2019-03-26T22:57:56.068Z,12.00
2019-03-26T23:00:30.716Z,13.80
2019-03-26T23:03:01.668Z,9.20
2019-03-26T23:05:32.131Z,10.40
2019-03-26T23:08:02.756Z,14.60
2019-03-26T23:10:33.429Z,15.20
2019-03-26T23:13:04.100Z,7.80
2019-03-26T23:15:34.539Z,12.40
2019-03-26T23:18:05.235Z,12.40
2019-03-26T23:20:36.389Z,13.00
2019-03-26T23:23:07.233Z,17.20
2019-03-26T23:25:37.879Z,10.00
2019-03-26T23:28:11.440Z,11.00
2019-03-26T23:30:42.176Z,10.80
2019-03-26T23:33:13.069Z,15.00
2019-03-26T23:35:43.880Z,12.20
2019-03-26T23:38:15.146Z,9.80
2019-03-26T23:40:45.853Z,12.40
2019-03-26T23:43:16.856Z,18.80
2019-03-26T23:45:47.435Z,16.60
2019-03-26T23:48:18.207Z,13.80
2019-03-26T23:50:50.706Z,12.80
2019-03-26T23:53:21.644Z,14.60
2019-03-26T23:55:52.985Z,11.60
2019-03-26T23:58:23.555Z,14.40
